Have a Safe July 4th! 

Flight Track Log - Related Links

Times and Time Zones

All times are in EDT time to prevent confusion due to time zone crossing. See the AWE1940 flight status page for this flight to view local times or setup timezone preferences in your user account.

Time Position Orientation Groundspeed Altitude Reporting Facility
EDT Latitude Longitude Course Direction KTS MPH feet Rate Location/Type
Thu 11:25:58 PM 35.1911 -80.9508 72° East 164 189 1,600  Level Atlanta Center
Thu 11:26:59 PM 35.1469 -80.9347 163° South 207 238 3,100 2,135 Climbing Atlanta Center
Thu 11:28:00 PM 35.1511 -80.5993 29° Northeast  Level FlightAware Approximate
Thu 11:28:41 PM 35.1833 -80.8039 71° East 292 336 7,400  Level Atlanta Center
Thu 11:29:00 PM 35.2599 -80.5239 30° Northeast  Level FlightAware Approximate
Thu 11:29:41 PM 35.2164 -80.7161 65° Northeast 292 336 10,000  Level Atlanta Center
Thu 11:30:00 PM 35.3423 -80.4329 72° East  Level FlightAware Approximate
Thu 11:30:41 PM 35.2553 -80.6128 65° Northeast 315 362 12,000  Level Atlanta Center
Thu 11:31:00 PM 35.3807 -80.2871 72° East  Level FlightAware Approximate
Thu 11:33:02 PM 35.3586 -80.3394 65° Northeast 370 426 17,700  Level Washington Center
Thu 11:34:02 PM 35.4053 -80.2147 65° Northeast 396 456 19,000 1,600 Climbing Washington Center
Thu 11:35:02 PM 35.4481 -80.0769 69° East 416 479 20,900 1,800 Climbing Washington Center
Thu 11:36:02 PM 35.4872 -79.9208 73° East 423 487 22,600 1,600 Climbing Washington Center
Thu 11:37:02 PM 35.5281 -79.7675 72° East 447 514 24,100 1,450 Climbing Washington Center
Thu 11:38:02 PM 35.5689 -79.6114 72° East 460 529 25,500 1,300 Climbing Washington Center
Thu 11:39:02 PM 35.6072 -79.4675 72° East 483 556 26,700 1,300 Climbing Washington Center
Thu 11:40:02 PM 35.6689 -79.2967 66° East 488 562 28,100 1,350 Climbing Washington Center
Thu 11:41:02 PM 35.7642 -79.1808 45° Northeast 470 541 29,400 1,300 Climbing Washington Center
Thu 11:42:02 PM 35.8694 -79.0806 38° Northeast 470 541 30,700 1,300 Climbing Washington Center
Thu 11:43:02 PM 35.9747 -78.9775 38° Northeast 471 542 32,000 1,200 Climbing Washington Center
Thu 11:44:02 PM 36.0775 -78.8789 38° Northeast 471 542 33,100 1,200 Climbing Washington Center
Thu 11:45:02 PM 36.1825 -78.7778 38° Northeast 471 542 34,400 1,250 Climbing Washington Center
Thu 11:46:02 PM 36.2833 -78.6764 39° Northeast 471 542 35,600 850 Climbing Washington Center
Thu 11:47:02 PM 36.3858 -78.5772 38° Northeast 471 542 36,100 535 Climbing Washington Center
Thu 11:48:39 PM 36.5397 -78.4253 38° Northeast 482 555 37,000 342 Climbing Washington Center
Thu 11:49:40 PM 36.6444 -78.3203 39° Northeast 477 549 37,000  Level Washington Center
Thu 11:50:40 PM 36.7597 -78.2025 39° Northeast 477 549 37,000  Level Washington Center
Thu 11:51:40 PM 36.8664 -78.0972 38° Northeast 477 549 37,000  Level Washington Center
Thu 11:52:39 PM 36.9750 -77.9864 39° Northeast 477 549 37,000  Level Washington Center
Thu 11:53:39 PM 37.0814 -77.8803 38° Northeast 482 555 37,000  Level Washington Center
Thu 11:54:41 PM 37.1856 -77.7739 39° Northeast 482 555 37,000 -50 Level Washington Center
Thu 11:55:40 PM 37.2897 -77.6672 39° Northeast 477 549 36,900  Descending Washington Center
Thu 11:56:38 PM 37.3958 -77.5603 39° Northeast 477 549 37,000 50 Climbing Washington Center
Thu 11:57:39 PM 37.5019 -77.4531 39° Northeast 477 549 37,000  Level Washington Center
Thu 11:59:00 PM 37.6263 -77.3348 37° Northeast  Level FlightAware Approximate
Thu 11:59:40 PM 37.7114 -77.2350 37° Northeast 483 556 37,000  Level Washington Center
Fri 12:00:39 AM 37.8172 -77.1244 40° Northeast 483 556 37,000  Level Washington Center
Fri 12:01:41 AM 37.9228 -77.0133 40° Northeast 476 548 37,000  Level Washington Center
Fri 12:02:38 AM 38.0306 -76.9019 39° Northeast 483 556 37,000  Level Washington Center
Fri 12:03:41 AM 38.1339 -76.7928 40° Northeast 483 556 37,000  Level Washington Center
Fri 12:04:39 AM 38.2392 -76.6836 39° Northeast 483 556 37,000  Level Washington Center
Fri 12:05:39 AM 38.3339 -76.5842 39° Northeast 476 548 37,000  Level Washington Center
Fri 12:06:40 AM 38.4389 -76.4717 40° Northeast 481 554 37,000  Level Washington Center
Fri 12:07:38 AM 38.5439 -76.3589 40° Northeast 481 554 37,000  Level Washington Center
Fri 12:08:40 AM 38.6508 -76.2483 39° Northeast 481 554 37,000  Level Washington Center
Fri 12:09:39 AM 38.7517 -76.1428 39° Northeast 494 568 37,000  Level Washington Center
Fri 12:10:39 AM 38.8667 -76.0208 40° Northeast 494 568 37,000  Level Washington Center
Fri 12:11:41 AM 38.9858 -75.8908 40° Northeast 499 574 37,000  Level Washington Center
Fri 12:12:38 AM 39.0800 -75.7867 41° Northeast 499 574 37,000  Level Washington Center
Fri 12:13:38 AM 39.1989 -75.6558 40° Northeast 507 583 37,000  Level Washington Center
Fri 12:14:39 AM 39.2947 -75.5539 39° Northeast 507 583 37,000  Level Washington Center
Fri 12:15:39 AM 39.4114 -75.4222 41° Northeast 507 583 37,000  Level Washington Center
Fri 12:16:39 AM 39.5050 -75.3200 40° Northeast 507 583 37,000 -50 Level Washington Center
Fri 12:17:38 AM 39.6025 -75.2117 41° Northeast 502 578 36,900  Descending Washington Center
Fri 12:19:18 AM 39.7853 -75.0094 40° Northeast 506 582 37,000 38 Climbing New York Center
Fri 12:20:16 AM 39.8917 -74.8886 41° Northeast 499 574 37,000  Level New York Center
Fri 12:21:16 AM 39.9978 -74.7703 40° Northeast 504 580 37,000 -50 Level New York Center
Fri 12:22:16 AM 40.1039 -74.6517 41° Northeast 498 573 36,900 -545 Descending New York Center
Fri 12:23:17 AM 40.2081 -74.5297 42° Northeast 498 573 35,900 -984 Descending New York Center
Fri 12:24:18 AM 40.3158 -74.4075 41° Northeast 503 579 34,900 -958 Descending New York Center
Fri 12:25:16 AM 40.4239 -74.2825 41° Northeast 503 579 34,000 -2,463 Descending New York Center
Fri 12:27:28 AM 40.6661 -74.0078 41° Northeast 518 596 27,100 -3,031 Descending Boston Center
Fri 12:28:28 AM 40.7761 -73.8817 41° Northeast 523 602 24,300 -1,550 Descending Boston Center
Fri 12:29:28 AM 40.8775 -73.7578 43° Northeast 507 583 24,000 -150 Descending Boston Center
Fri 12:30:28 AM 40.9892 -73.6528 35° Northeast 502 578 24,000  Level Boston Center
Fri 12:31:28 AM 41.1267 -73.6525 360° North 462 532 24,000 -100 Level Boston Center
Fri 12:32:28 AM 41.2558 -73.6689 355° North 456 525 23,800 -800 Descending Boston Center
Fri 12:33:28 AM 41.3828 -73.6822 355° North 456 525 22,400 -2,050 Descending Boston Center
Fri 12:34:28 AM 41.5119 -73.6986 355° North 461 531 19,700 -2,400 Descending Boston Center
Fri 12:35:28 AM 41.6408 -73.7150 355° North 450 518 17,600 -2,200 Descending Boston Center
Fri 12:36:28 AM 41.7575 -73.7258 356° North 429 494 15,300 -2,050 Descending Boston Center
Fri 12:37:28 AM 41.8678 -73.7419 354° North 408 470 13,500 -1,800 Descending Boston Center
Fri 12:38:28 AM 41.9758 -73.7553 355° North 395 455 11,700 -1,250 Descending Boston Center
Fri 12:39:28 AM 42.0781 -73.7631 357° North 368 423 11,000 -350 Descending Boston Center
Fri 12:40:28 AM 42.1592 -73.7733 355° North 342 394 11,000 -700 Level Boston Center
Fri 12:41:28 AM 42.2486 -73.7808 356° North 297 342 9,600 -1,500 Descending Boston Center
Fri 12:42:28 AM 42.3194 -73.7850 358° North 284 327 8,000 -1,600 Descending Boston Center
Fri 12:43:28 AM 42.4069 -73.7869 359° North 284 327 6,400 -1,773 Descending Boston Center
Fri 12:44:40 AM 42.4944 -73.7944 356° North 272 313 4,100 -1,850 Descending Boston Center
Fri 12:45:28 AM 42.5569 -73.7958 359° North 269 310 2,700 -833 Descending Boston Center
Fri 12:46:28 AM 42.6194 -73.8028 355° North 251 289 2,600 -400 Descending Boston Center
Fri 12:47:28 AM 42.6631 -73.8039 359° North 244 281 1,900 -851 Descending Boston Center
Fri 12:48:42 AM 42.7194 -73.8078 357° North 129 148 700 -973 Descending Boston Center

Login

Don't have an account? Register now (free) for customized features, flight alerts, and more!